sensor_id;sensor_type;location;lat;lon;timestamp;pressure;altitude;pressure_sealevel;temperature;humidity
10127;BME280;13080;42.608;23.362;2023-07-20T00:02:02;156245.97;;;20.28;69.03
10127;BME280;13080;42.608;23.362;2023-07-20T00:04:31;156232.91;;;20.23;68.92
10127;BME280;13080;42.608;23.362;2023-07-20T00:06:59;156221.13;;;20.18;69.67
10127;BME280;13080;42.608;23.362;2023-07-20T00:09:27;156206.72;;;20.12;69.34
10127;BME280;13080;42.608;23.362;2023-07-20T00:11:53;156202.78;;;20.11;69.23
10127;BME280;13080;42.608;23.362;2023-07-20T00:14:20;156211.97;;;20.14;68.22
10127;BME280;13080;42.608;23.362;2023-07-20T00:16:49;156214.56;;;20.15;68.30
10127;BME280;13080;42.608;23.362;2023-07-20T00:19:21;156222.44;;;20.19;68.07
10127;BME280;13080;42.608;23.362;2023-07-20T00:21:49;156240.72;;;20.26;67.51
10127;BME280;13080;42.608;23.362;2023-07-20T00:24:17;156249.91;;;20.29;67.94
10127;BME280;13080;42.608;23.362;2023-07-20T00:26:44;156273.44;;;20.39;66.97
10127;BME280;13080;42.608;23.362;2023-07-20T00:29:11;156290.44;;;20.45;66.33
10127;BME280;13080;42.608;23.362;2023-07-20T00:31:37;156300.91;;;20.49;66.57
10127;BME280;13080;42.608;23.362;2023-07-20T00:34:04;156308.75;;;20.52;66.57
10127;BME280;13080;42.608;23.362;2023-07-20T00:36:31;156313.97;;;20.54;66.69
10127;BME280;13080;42.608;23.362;2023-07-20T00:38:58;156312.69;;;20.54;66.95
10127;BME280;13080;42.608;23.362;2023-07-20T00:41:26;156311.31;;;20.53;67.35
10127;BME280;13080;42.608;23.362;2023-07-20T00:43:54;156328.38;;;20.60;66.96
10127;BME280;13080;42.608;23.362;2023-07-20T00:46:22;156323.16;;;20.58;66.75
10127;BME280;13080;42.608;23.362;2023-07-20T00:48:49;156345.38;;;20.67;67.74
10127;BME280;13080;42.608;23.362;2023-07-20T00:51:16;156325.78;;;20.59;68.35
10127;BME280;13080;42.608;23.362;2023-07-20T00:53:43;156319.25;;;20.57;69.20
10127;BME280;13080;42.608;23.362;2023-07-20T00:56:10;156295.66;;;20.47;68.49
10127;BME280;13080;42.608;23.362;2023-07-20T00:58:38;156283.91;;;20.43;67.69
10127;BME280;13080;42.608;23.362;2023-07-20T01:01:05;156277.31;;;20.40;67.00
10127;BME280;13080;42.608;23.362;2023-07-20T01:03:32;156282.56;;;20.42;66.43
10127;BME280;13080;42.608;23.362;2023-07-20T01:06:07;156274.72;;;20.39;67.84
10127;BME280;13080;42.608;23.362;2023-07-20T01:08:40;156257.72;;;20.32;68.63
10127;BME280;13080;42.608;23.362;2023-07-20T01:11:15;156235.50;;;20.24;70.35
10127;BME280;13080;42.608;23.362;2023-07-20T01:13:44;156206.72;;;20.12;71.00
10127;BME280;13080;42.608;23.362;2023-07-20T01:16:12;156175.38;;;20.00;72.67
10127;BME280;13080;42.608;23.362;2023-07-20T01:18:38;156130.91;;;19.83;72.93
10127;BME280;13080;42.608;23.362;2023-07-20T01:21:09;156100.84;;;19.71;73.18
10127;BME280;13080;42.608;23.362;2023-07-20T01:24:04;156047.19;;;19.50;75.55
10127;BME280;13080;42.608;23.362;2023-07-20T01:29:49;155975.34;;;19.22;77.92
10127;BME280;13080;42.608;23.362;2023-07-20T01:32:23;155943.94;;;19.09;78.60
10127;BME280;13080;42.608;23.362;2023-07-20T01:34:52;155921.72;;;19.01;79.13
10127;BME280;13080;42.608;23.362;2023-07-20T01:37:21;155885.16;;;18.86;80.22
10127;BME280;13080;42.608;23.362;2023-07-20T01:39:52;155861.66;;;18.77;79.41
10127;BME280;13080;42.608;23.362;2023-07-20T01:42:21;155847.22;;;18.72;80.22
10127;BME280;13080;42.608;23.362;2023-07-20T01:44:50;155838.09;;;18.68;80.77
10127;BME280;13080;42.608;23.362;2023-07-20T01:47:16;155815.88;;;18.59;80.73
10127;BME280;13080;42.608;23.362;2023-07-20T01:49:45;155798.91;;;18.53;81.94
10127;BME280;13080;42.608;23.362;2023-07-20T01:52:11;155785.84;;;18.47;82.43
10127;BME280;13080;42.608;23.362;2023-07-20T01:54:38;155787.16;;;18.48;83.15
10127;BME280;13080;42.608;23.362;2023-07-20T01:57:05;155761.00;;;18.38;82.91
10127;BME280;13080;42.608;23.362;2023-07-20T01:59:32;155751.88;;;18.34;82.89
10127;BME280;13080;42.608;23.362;2023-07-20T02:01:58;155741.44;;;18.30;83.00
10127;BME280;13080;42.608;23.362;2023-07-20T02:04:25;155729.69;;;18.25;82.79
10127;BME280;13080;42.608;23.362;2023-07-20T02:06:53;155728.34;;;18.25;82.54
10127;BME280;13080;42.608;23.362;2023-07-20T02:09:20;155720.53;;;18.22;82.80
10127;BME280;13080;42.608;23.362;2023-07-20T02:11:47;155716.59;;;18.20;82.27
10127;BME280;13080;42.608;23.362;2023-07-20T02:14:13;155711.41;;;18.18;81.07
10127;BME280;13080;42.608;23.362;2023-07-20T02:16:40;155716.59;;;18.20;80.75
10127;BME280;13080;42.608;23.362;2023-07-20T02:19:07;155711.41;;;18.18;80.98
10127;BME280;13080;42.608;23.362;2023-07-20T02:21:34;155712.72;;;18.19;80.32
10127;BME280;13080;42.608;23.362;2023-07-20T02:24:02;155708.78;;;18.17;80.42
10127;BME280;13080;42.608;23.362;2023-07-20T02:26:29;155707.47;;;18.17;80.72
10127;BME280;13080;42.608;23.362;2023-07-20T02:28:56;155704.84;;;18.16;80.28
10127;BME280;13080;42.608;23.362;2023-07-20T02:31:23;155695.72;;;18.12;80.88
10127;BME280;13080;42.608;23.362;2023-07-20T02:33:49;155691.81;;;18.11;79.92
10127;BME280;13080;42.608;23.362;2023-07-20T02:36:16;155682.63;;;18.07;80.52
10127;BME280;13080;42.608;23.362;2023-07-20T02:38:43;155674.81;;;18.04;80.73
10127;BME280;13080;42.608;23.362;2023-07-20T02:41:11;155661.78;;;17.99;80.88
10127;BME280;13080;42.608;23.362;2023-07-20T02:43:38;155657.84;;;17.97;80.96
10127;BME280;13080;42.608;23.362;2023-07-20T02:46:05;155650.03;;;17.94;81.27
10127;BME280;13080;42.608;23.362;2023-07-20T02:48:32;155648.75;;;17.94;81.56
10127;BME280;13080;42.608;23.362;2023-07-20T02:50:58;155642.16;;;17.91;81.72
10127;BME280;13080;42.608;23.362;2023-07-20T02:53:25;155629.13;;;17.86;81.90
10127;BME280;13080;42.608;23.362;2023-07-20T02:55:52;155618.66;;;17.82;82.00
10127;BME280;13080;42.608;23.362;2023-07-20T02:58:20;155616.03;;;17.81;82.12
10127;BME280;13080;42.608;23.362;2023-07-20T03:00:47;155616.03;;;17.81;82.40
10127;BME280;13080;42.608;23.362;2023-07-20T03:03:13;155616.03;;;17.81;82.96
10127;BME280;13080;42.608;23.362;2023-07-20T03:05:41;155609.50;;;17.78;83.11
10127;BME280;13080;42.608;23.362;2023-07-20T03:08:08;155606.88;;;17.77;83.42
10127;BME280;13080;42.608;23.362;2023-07-20T03:10:39;155604.28;;;17.76;82.95
10127;BME280;13080;42.608;23.362;2023-07-20T03:13:06;155600.34;;;17.75;82.72
10127;BME280;13080;42.608;23.362;2023-07-20T03:15:34;155589.91;;;17.71;82.98
10127;BME280;13080;42.608;23.362;2023-07-20T03:18:01;155591.19;;;17.71;83.71
10127;BME280;13080;42.608;23.362;2023-07-20T03:20:28;155592.53;;;17.72;83.96
10127;BME280;13080;42.608;23.362;2023-07-20T03:22:55;155601.66;;;17.75;84.23
10127;BME280;13080;42.608;23.362;2023-07-20T03:25:21;155600.34;;;17.75;84.30
10127;BME280;13080;42.608;23.362;2023-07-20T03:27:48;155606.88;;;17.77;84.79
10127;BME280;13080;42.608;23.362;2023-07-20T03:30:15;155606.88;;;17.77;84.94
10127;BME280;13080;42.608;23.362;2023-07-20T03:32:43;155605.56;;;17.77;84.78
10127;BME280;13080;42.608;23.362;2023-07-20T03:35:10;155613.41;;;17.80;84.99
10127;BME280;13080;42.608;23.362;2023-07-20T03:37:37;155626.53;;;17.85;85.38
10127;BME280;13080;42.608;23.362;2023-07-20T03:40:04;155634.34;;;17.88;85.67
10127;BME280;13080;42.608;23.362;2023-07-20T03:42:32;155648.75;;;17.94;86.01
10127;BME280;13080;42.608;23.362;2023-07-20T03:44:59;155659.13;;;17.98;85.74
10127;BME280;13080;42.608;23.362;2023-07-20T03:47:26;155673.53;;;18.03;85.34
10127;BME280;13080;42.608;23.362;2023-07-20T03:49:54;155689.22;;;18.10;85.54
10127;BME280;13080;42.608;23.362;2023-07-20T03:52:21;155703.53;;;18.15;85.39
10127;BME280;13080;42.608;23.362;2023-07-20T03:54:48;155717.94;;;18.21;85.47
10127;BME280;13080;42.608;23.362;2023-07-20T03:57:16;155729.69;;;18.25;85.96
10127;BME280;13080;42.608;23.362;2023-07-20T03:59:44;155747.97;;;18.33;85.82
10127;BME280;13080;42.608;23.362;2023-07-20T04:02:11;155762.31;;;18.38;85.83
10127;BME280;13080;42.608;23.362;2023-07-20T04:04:38;155775.41;;;18.43;85.18
10127;BME280;13080;42.608;23.362;2023-07-20T04:07:06;155801.50;;;18.54;85.96
10127;BME280;13080;42.608;23.362;2023-07-20T04:09:33;155821.13;;;18.61;86.21
10127;BME280;13080;42.608;23.362;2023-07-20T04:12:00;155845.91;;;18.71;85.89
10127;BME280;13080;42.608;23.362;2023-07-20T04:14:27;155866.88;;;18.79;86.08
10127;BME280;13080;42.608;23.362;2023-07-20T04:16:53;155891.69;;;18.89;86.11
10127;BME280;13080;42.608;23.362;2023-07-20T04:19:20;155906.09;;;18.95;85.64
10127;BME280;13080;42.608;23.362;2023-07-20T04:21:47;155941.34;;;19.08;85.61
10127;BME280;13080;42.608;23.362;2023-07-20T04:24:15;155970.09;;;19.20;82.86
10127;BME280;13080;42.608;23.362;2023-07-20T04:26:42;155993.63;;;19.29;83.22
10127;BME280;13080;42.608;23.362;2023-07-20T04:29:08;156032.81;;;19.44;82.55
10127;BME280;13080;42.608;23.362;2023-07-20T04:31:35;156049.81;;;19.51;83.09
10127;BME280;13080;42.608;23.362;2023-07-20T04:34:02;156070.69;;;19.59;83.73
10127;BME280;13080;42.608;23.362;2023-07-20T04:36:29;156109.97;;;19.75;82.74
10127;BME280;13080;42.608;23.362;2023-07-20T04:38:56;156150.50;;;19.90;80.15
10127;BME280;13080;42.608;23.362;2023-07-20T04:41:24;156159.66;;;19.94;79.88
10127;BME280;13080;42.608;23.362;2023-07-20T04:43:51;156179.25;;;20.02;78.94
10127;BME280;13080;42.608;23.362;2023-07-20T04:46:18;156189.72;;;20.06;79.23
10127;BME280;13080;42.608;23.362;2023-07-20T04:48:46;156210.66;;;20.14;79.11
10127;BME280;13080;42.608;23.362;2023-07-20T04:51:13;156228.97;;;20.21;79.08
10127;BME280;13080;42.608;23.362;2023-07-20T04:53:40;156228.97;;;20.21;77.33
10127;BME280;13080;42.608;23.362;2023-07-20T04:56:08;156242.03;;;20.26;76.83
10127;BME280;13080;42.608;23.362;2023-07-20T04:58:37;156248.56;;;20.29;77.50
10127;BME280;13080;42.608;23.362;2023-07-20T05:01:04;156257.72;;;20.32;76.60
10127;BME280;13080;42.608;23.362;2023-07-20T05:03:30;156255.13;;;20.31;76.42
10127;BME280;13080;42.608;23.362;2023-07-20T05:05:57;156264.25;;;20.35;76.95
10127;BME280;13080;42.608;23.362;2023-07-20T05:08:24;156286.50;;;20.44;77.71
10127;BME280;13080;42.608;23.362;2023-07-20T05:10:51;156320.56;;;20.57;76.21
10127;BME280;13080;42.608;23.362;2023-07-20T05:13:18;156332.31;;;20.62;76.44
10127;BME280;13080;42.608;23.362;2023-07-20T05:15:46;156344.09;;;20.66;77.01
10127;BME280;13080;42.608;23.362;2023-07-20T05:18:12;156355.88;;;20.71;75.54
10127;BME280;13080;42.608;23.362;2023-07-20T05:20:45;156387.28;;;20.83;76.26
10127;BME280;13080;42.608;23.362;2023-07-20T05:23:12;156395.13;;;20.86;76.73
10127;BME280;13080;42.608;23.362;2023-07-20T05:25:39;156414.72;;;20.94;76.91
10127;BME280;13080;42.608;23.362;2023-07-20T05:28:06;156444.84;;;21.06;76.74
10127;BME280;13080;42.608;23.362;2023-07-20T05:30:32;156478.88;;;21.19;76.71
10127;BME280;13080;42.608;23.362;2023-07-20T05:33:01;156511.53;;;21.32;74.77
10127;BME280;13080;42.608;23.362;2023-07-20T05:35:27;156544.31;;;21.45;74.60
10127;BME280;13080;42.608;23.362;2023-07-20T05:37:54;156544.31;;;21.45;75.82
10127;BME280;13080;42.608;23.362;2023-07-20T05:40:21;156549.56;;;21.47;74.58
10127;BME280;13080;42.608;23.362;2023-07-20T05:42:48;156537.78;;;21.42;74.60
10127;BME280;13080;42.608;23.362;2023-07-20T05:45:17;156567.88;;;21.54;73.24
10127;BME280;13080;42.608;23.362;2023-07-20T05:47:44;156575.75;;;21.57;73.53
10127;BME280;13080;42.608;23.362;2023-07-20T05:50:12;156620.22;;;21.74;72.53
10127;BME280;13080;42.608;23.362;2023-07-20T05:52:39;156652.97;;;21.87;72.61
10127;BME280;13080;42.608;23.362;2023-07-20T05:55:07;156635.94;;;21.80;71.63
10127;BME280;13080;42.608;23.362;2023-07-20T05:57:34;156612.38;;;21.71;72.24
10127;BME280;13080;42.608;23.362;2023-07-20T06:00:06;156664.75;;;21.92;72.97
10127;BME280;13080;42.608;23.362;2023-07-20T06:02:33;156667.38;;;21.93;71.38
10127;BME280;13080;42.608;23.362;2023-07-20T06:05:00;156663.44;;;21.91;70.75
10127;BME280;13080;42.608;23.362;2023-07-20T06:07:29;156713.19;;;22.11;69.88
10127;BME280;13080;42.608;23.362;2023-07-20T06:09:56;156765.63;;;22.31;67.60
10127;BME280;13080;42.608;23.362;2023-07-20T06:12:23;156794.44;;;22.42;67.13
10127;BME280;13080;42.608;23.362;2023-07-20T06:15:23;156835.00;;;22.58;66.97
10127;BME280;13080;42.608;23.362;2023-07-20T06:17:50;156875.63;;;22.74;67.88
10127;BME280;13080;42.608;23.362;2023-07-20T06:20:17;156910.97;;;22.88;68.54
10127;BME280;13080;42.608;23.362;2023-07-20T06:22:45;156896.59;;;22.82;66.76
10127;BME280;13080;42.608;23.362;2023-07-20T06:25:13;156925.41;;;22.94;66.46
10127;BME280;13080;42.608;23.362;2023-07-20T06:27:40;156976.50;;;23.14;65.63
10127;BME280;13080;42.608;23.362;2023-07-20T06:30:07;156983.09;;;23.16;66.00
10127;BME280;13080;42.608;23.362;2023-07-20T06:32:34;157034.19;;;23.36;65.96
10127;BME280;13080;42.608;23.362;2023-07-20T06:35:01;157074.81;;;23.52;65.86
10127;BME280;13080;42.608;23.362;2023-07-20T06:37:27;157102.28;;;23.63;66.23
10127;BME280;13080;42.608;23.362;2023-07-20T06:39:56;157150.84;;;23.82;65.60
10127;BME280;13080;42.608;23.362;2023-07-20T06:42:22;157140.34;;;23.78;64.00
10127;BME280;13080;42.608;23.362;2023-07-20T06:44:49;157177.03;;;23.92;63.61
10127;BME280;13080;42.608;23.362;2023-07-20T06:47:16;157180.97;;;23.94;61.94
10127;BME280;13080;42.608;23.362;2023-07-20T06:49:42;157207.22;;;24.04;61.61
10127;BME280;13080;42.608;23.362;2023-07-20T06:52:09;157230.81;;;24.13;60.77
10127;BME280;13080;42.608;23.362;2023-07-20T06:54:36;157276.69;;;24.31;61.57
10127;BME280;13080;42.608;23.362;2023-07-20T06:57:05;157319.97;;;24.48;61.21
10127;BME280;13080;42.608;23.362;2023-07-20T06:59:32;157329.19;;;24.52;59.90
10127;BME280;13080;42.608;23.362;2023-07-20T07:01:59;157360.63;;;24.64;59.40
10127;BME280;13080;42.608;23.362;2023-07-20T07:04:25;157363.28;;;24.65;59.81
10127;BME280;13080;42.608;23.362;2023-07-20T07:06:52;157423.56;;;24.88;60.66
10127;BME280;13080;42.608;23.362;2023-07-20T07:09:19;157411.78;;;24.84;58.13
10127;BME280;13080;42.608;23.362;2023-07-20T07:11:46;157440.63;;;24.95;59.45
10127;BME280;13080;42.608;23.362;2023-07-20T07:14:14;157444.56;;;24.97;59.32
10127;BME280;13080;42.608;23.362;2023-07-20T07:16:41;157313.38;;;24.45;60.31
10127;BME280;13080;42.608;23.362;2023-07-20T07:19:07;157297.63;;;24.39;61.08
10127;BME280;13080;42.608;23.362;2023-07-20T07:21:34;157270.16;;;24.28;61.29
10127;BME280;13080;42.608;23.362;2023-07-20T07:24:01;157292.44;;;24.37;62.72
10127;BME280;13080;42.608;23.362;2023-07-20T07:26:29;157267.50;;;24.27;64.36
10127;BME280;13080;42.608;23.362;2023-07-20T07:28:55;157271.44;;;24.29;63.22
10127;BME280;13080;42.608;23.362;2023-07-20T07:31:24;157296.34;;;24.39;60.25
10127;BME280;13080;42.608;23.362;2023-07-20T07:33:51;157253.09;;;24.22;61.34
10127;BME280;13080;42.608;23.362;2023-07-20T07:36:18;157284.53;;;24.34;60.85
10127;BME280;13080;42.608;23.362;2023-07-20T07:38:45;157333.13;;;24.53;60.73
10127;BME280;13080;42.608;23.362;2023-07-20T07:41:11;157331.78;;;24.53;59.72
10127;BME280;13080;42.608;23.362;2023-07-20T07:43:38;157284.53;;;24.34;60.26
10127;BME280;13080;42.608;23.362;2023-07-20T07:46:05;157317.34;;;24.47;59.83
10127;BME280;13080;42.608;23.362;2023-07-20T07:48:33;157326.53;;;24.51;61.52
10127;BME280;13080;42.608;23.362;2023-07-20T07:50:59;157365.88;;;24.66;61.13
10127;BME280;13080;42.608;23.362;2023-07-20T07:53:26;157371.13;;;24.68;61.74
10127;BME280;13080;42.608;23.362;2023-07-20T07:55:54;157340.97;;;24.56;63.26
10127;BME280;13080;42.608;23.362;2023-07-20T07:58:21;157415.72;;;24.85;60.88
10127;BME280;13080;42.608;23.362;2023-07-20T08:00:47;157411.78;;;24.84;60.45
10127;BME280;13080;42.608;23.362;2023-07-20T08:03:14;157462.94;;;25.04;61.80
10127;BME280;13080;42.608;23.362;2023-07-20T08:05:42;157461.63;;;25.03;60.58
10127;BME280;13080;42.608;23.362;2023-07-20T08:08:09;157481.28;;;25.11;60.70
10127;BME280;13080;42.608;23.362;2023-07-20T08:10:36;157498.34;;;25.18;59.54
10127;BME280;13080;42.608;23.362;2023-07-20T08:13:02;157554.81;;;25.40;61.58
10127;BME280;13080;42.608;23.362;2023-07-20T08:15:29;157598.13;;;25.57;60.93
10127;BME280;13080;42.608;23.362;2023-07-20T08:17:56;157590.22;;;25.54;59.58
10127;BME280;13080;42.608;23.362;2023-07-20T08:20:22;157556.09;;;25.40;60.56
10127;BME280;13080;42.608;23.362;2023-07-20T08:22:54;157501.03;;;25.19;62.77
10127;BME280;13080;42.608;23.362;2023-07-20T08:25:21;157558.75;;;25.41;62.42
10127;BME280;13080;42.608;23.362;2023-07-20T08:27:48;157527.25;;;25.29;63.46
10127;BME280;13080;42.608;23.362;2023-07-20T08:30:14;157552.19;;;25.39;64.53
10127;BME280;13080;42.608;23.362;2023-07-20T08:32:41;157516.78;;;25.25;64.98
10127;BME280;13080;42.608;23.362;2023-07-20T08:35:08;157506.28;;;25.21;63.98
10127;BME280;13080;42.608;23.362;2023-07-20T08:37:35;157493.13;;;25.16;64.42
10127;BME280;13080;42.608;23.362;2023-07-20T08:40:04;157470.81;;;25.07;62.36
10127;BME280;13080;42.608;23.362;2023-07-20T08:42:34;157474.72;;;25.08;61.08
10127;BME280;13080;42.608;23.362;2023-07-20T08:45:05;157396.06;;;24.78;60.02
10127;BME280;13080;42.608;23.362;2023-07-20T08:47:33;157340.97;;;24.56;58.81
10127;BME280;13080;42.608;23.362;2023-07-20T08:50:00;157351.47;;;24.60;58.36
10127;BME280;13080;42.608;23.362;2023-07-20T08:52:33;157300.28;;;24.40;58.56
10127;BME280;13080;42.608;23.362;2023-07-20T08:55:00;157351.47;;;24.60;60.43
10127;BME280;13080;42.608;23.362;2023-07-20T08:57:32;157352.78;;;24.61;59.88
10127;BME280;13080;42.608;23.362;2023-07-20T09:00:00;157439.31;;;24.95;58.86
10127;BME280;13080;42.608;23.362;2023-07-20T09:02:30;157455.09;;;25.01;57.57
10127;BME280;13080;42.608;23.362;2023-07-20T09:05:00;157453.78;;;25.00;58.19
10127;BME280;13080;42.608;23.362;2023-07-20T09:07:27;157390.81;;;24.76;55.79
10127;BME280;13080;42.608;23.362;2023-07-20T09:09:57;157435.38;;;24.93;57.35
10127;BME280;13080;42.608;23.362;2023-07-20T09:12:23;157477.38;;;25.09;60.14
10127;BME280;13080;42.608;23.362;2023-07-20T09:14:52;157491.78;;;25.15;56.17
10127;BME280;13080;42.608;23.362;2023-07-20T09:17:18;157460.31;;;25.03;55.32
10127;BME280;13080;42.608;23.362;2023-07-20T09:19:46;157439.31;;;24.95;55.26
10127;BME280;13080;42.608;23.362;2023-07-20T09:22:13;157415.72;;;24.85;56.11
10127;BME280;13080;42.608;23.362;2023-07-20T09:24:40;157462.94;;;25.04;55.55
10127;BME280;13080;42.608;23.362;2023-07-20T09:27:08;157491.78;;;25.15;54.23
10127;BME280;13080;42.608;23.362;2023-07-20T09:29:47;157501.03;;;25.19;56.09
10127;BME280;13080;42.608;23.362;2023-07-20T09:32:18;157560.06;;;25.42;57.61
10127;BME280;13080;42.608;23.362;2023-07-20T09:34:49;157552.19;;;25.39;54.78
10127;BME280;13080;42.608;23.362;2023-07-20T09:37:20;157495.75;;;25.17;54.01
10127;BME280;13080;42.608;23.362;2023-07-20T09:39:47;157514.13;;;25.24;53.60
10127;BME280;13080;42.608;23.362;2023-07-20T09:42:14;157507.59;;;25.21;52.98
10127;BME280;13080;42.608;23.362;2023-07-20T09:44:43;157540.41;;;25.34;55.66
10127;BME280;13080;42.608;23.362;2023-07-20T09:47:10;157570.56;;;25.46;54.85
10127;BME280;13080;42.608;23.362;2023-07-20T09:49:40;157599.41;;;25.57;52.90
10127;BME280;13080;42.608;23.362;2023-07-20T09:52:08;157642.75;;;25.74;52.66
10127;BME280;13080;42.608;23.362;2023-07-20T09:54:37;157661.09;;;25.81;52.74
10127;BME280;13080;42.608;23.362;2023-07-20T09:57:07;157738.56;;;26.11;54.20
10127;BME280;13080;42.608;23.362;2023-07-20T09:59:34;157840.94;;;26.51;53.58
10127;BME280;13080;42.608;23.362;2023-07-20T10:02:02;157881.69;;;26.67;52.24
10127;BME280;13080;42.608;23.362;2023-07-20T10:04:34;157892.19;;;26.71;49.33
10127;BME280;13080;42.608;23.362;2023-07-20T10:07:09;157896.16;;;26.73;48.87
10127;BME280;13080;42.608;23.362;2023-07-20T10:09:39;157864.63;;;26.61;48.94
10127;BME280;13080;42.608;23.362;2023-07-20T10:12:08;157830.44;;;26.47;50.94
10127;BME280;13080;42.608;23.362;2023-07-20T10:14:40;157833.09;;;26.48;50.54
10127;BME280;13080;42.608;23.362;2023-07-20T10:17:10;157852.81;;;26.56;50.89
10127;BME280;13080;42.608;23.362;2023-07-20T10:19:42;157855.47;;;26.57;48.96
10127;BME280;13080;42.608;23.362;2023-07-20T10:22:14;157855.47;;;26.57;48.50
10127;BME280;13080;42.608;23.362;2023-07-20T10:24:45;157925.03;;;26.84;49.20
10127;BME280;13080;42.608;23.362;2023-07-20T10:27:12;158014.31;;;27.19;48.76
10127;BME280;13080;42.608;23.362;2023-07-20T10:29:40;158018.31;;;27.21;46.31
10127;BME280;13080;42.608;23.362;2023-07-20T10:32:08;158020.91;;;27.22;47.60
10127;BME280;13080;42.608;23.362;2023-07-20T10:34:35;158062.97;;;27.38;47.49
10127;BME280;13080;42.608;23.362;2023-07-20T10:37:02;158016.97;;;27.20;45.04
10127;BME280;13080;42.608;23.362;2023-07-20T10:39:32;157998.53;;;27.13;45.57
10127;BME280;13080;42.608;23.362;2023-07-20T10:42:03;157934.19;;;26.88;46.42
10127;BME280;13080;42.608;23.362;2023-07-20T10:44:30;157855.47;;;26.57;46.82
10127;BME280;13080;42.608;23.362;2023-07-20T10:47:00;157963.09;;;26.99;48.31
10127;BME280;13080;42.608;23.362;2023-07-20T10:49:27;157949.97;;;26.94;47.34
10127;BME280;13080;42.608;23.362;2023-07-20T10:51:58;158016.97;;;27.20;49.58
10127;BME280;13080;42.608;23.362;2023-07-20T10:54:36;158060.31;;;27.37;47.92
10127;BME280;13080;42.608;23.362;2023-07-20T10:57:29;158105.00;;;27.54;48.87
10127;BME280;13080;42.608;23.362;2023-07-20T11:00:10;158157.53;;;27.75;48.10
10127;BME280;13080;42.608;23.362;2023-07-20T11:02:48;158174.63;;;27.82;45.40
10127;BME280;13080;42.608;23.362;2023-07-20T11:05:37;158218.03;;;27.98;48.91
10127;BME280;13080;42.608;23.362;2023-07-20T11:08:06;158262.69;;;28.16;51.60
10127;BME280;13080;42.608;23.362;2023-07-20T11:10:37;158228.50;;;28.03;50.26
10127;BME280;13080;42.608;23.362;2023-07-20T11:13:17;158252.19;;;28.12;47.05
10127;BME280;13080;42.608;23.362;2023-07-20T11:15:46;158303.44;;;28.32;49.70
10127;BME280;13080;42.608;23.362;2023-07-20T11:18:14;158319.19;;;28.38;45.04
10127;BME280;13080;42.608;23.362;2023-07-20T11:20:41;158325.75;;;28.40;46.29
10127;BME280;13080;42.608;23.362;2023-07-20T11:23:08;158303.44;;;28.32;46.60
10127;BME280;13080;42.608;23.362;2023-07-20T11:25:40;158373.16;;;28.59;46.77
10127;BME280;13080;42.608;23.362;2023-07-20T11:28:08;158416.50;;;28.76;44.42
10127;BME280;13080;42.608;23.362;2023-07-20T11:30:36;158441.50;;;28.86;43.07
10127;BME280;13080;42.608;23.362;2023-07-20T11:33:03;158449.38;;;28.89;44.54
10127;BME280;13080;42.608;23.362;2023-07-20T11:35:30;158436.25;;;28.84;44.33
10127;BME280;13080;42.608;23.362;2023-07-20T11:37:57;158423.06;;;28.78;44.60
10127;BME280;13080;42.608;23.362;2023-07-20T11:40:24;158457.25;;;28.92;47.61
10127;BME280;13080;42.608;23.362;2023-07-20T11:42:53;158479.59;;;29.00;46.58
10127;BME280;13080;42.608;23.362;2023-07-20T11:45:19;158469.06;;;28.96;48.71
10127;BME280;13080;42.608;23.362;2023-07-20T11:47:46;158494.09;;;29.06;44.61
10127;BME280;13080;42.608;23.362;2023-07-20T11:50:13;158475.63;;;28.99;44.07
10127;BME280;13080;42.608;23.362;2023-07-20T11:52:41;158444.13;;;28.87;44.17
10127;BME280;13080;42.608;23.362;2023-07-20T11:55:09;158449.38;;;28.89;43.82
10127;BME280;13080;42.608;23.362;2023-07-20T11:57:36;158455.94;;;28.91;44.62
10127;BME280;13080;42.608;23.362;2023-07-20T12:00:06;158484.88;;;29.02;46.06
10127;BME280;13080;42.608;23.362;2023-07-20T12:02:37;158467.78;;;28.96;44.56
10127;BME280;13080;42.608;23.362;2023-07-20T12:05:06;158462.50;;;28.94;47.11
10127;BME280;13080;42.608;23.362;2023-07-20T12:07:35;158475.63;;;28.99;47.76
10127;BME280;13080;42.608;23.362;2023-07-20T12:10:05;158467.78;;;28.96;44.83
10127;BME280;13080;42.608;23.362;2023-07-20T12:12:32;158479.59;;;29.00;44.48
10127;BME280;13080;42.608;23.362;2023-07-20T12:15:14;158492.72;;;29.06;46.59
10127;BME280;13080;42.608;23.362;2023-07-20T12:17:42;158491.44;;;29.05;39.49
10127;BME280;13080;42.608;23.362;2023-07-20T12:20:10;158470.44;;;28.97;40.43
10127;BME280;13080;42.608;23.362;2023-07-20T12:22:40;158450.69;;;28.89;40.33
10127;BME280;13080;42.608;23.362;2023-07-20T12:25:07;158480.91;;;29.01;40.27
10127;BME280;13080;42.608;23.362;2023-07-20T12:27:36;158457.25;;;28.92;38.08
10127;BME280;13080;42.608;23.362;2023-07-20T12:30:04;158455.94;;;28.91;38.96
10127;BME280;13080;42.608;23.362;2023-07-20T12:32:33;158484.88;;;29.02;38.46
10127;BME280;13080;42.608;23.362;2023-07-20T12:34:59;158498.00;;;29.08;38.36
10127;BME280;13080;42.608;23.362;2023-07-20T12:37:26;158482.25;;;29.01;39.68
10127;BME280;13080;42.608;23.362;2023-07-20T12:39:53;158478.31;;;29.00;38.82
10127;BME280;13080;42.608;23.362;2023-07-20T12:42:20;158521.69;;;29.17;39.20
10127;BME280;13080;42.608;23.362;2023-07-20T12:44:49;158525.66;;;29.18;38.36
10127;BME280;13080;42.608;23.362;2023-07-20T12:47:16;158528.31;;;29.19;36.84
10127;BME280;13080;42.608;23.362;2023-07-20T12:49:44;158519.09;;;29.16;39.90